createdAt,value
2023-05-23T00:00:42.399Z,38.99
2023-05-23T00:01:42.415Z,38.99
2023-05-23T00:02:42.512Z,39.16
2023-05-23T00:03:42.436Z,38.19
2023-05-23T00:04:42.371Z,39.16
2023-05-23T00:05:42.536Z,40.12
2023-05-23T00:06:42.342Z,40.61
2023-05-23T00:07:42.335Z,40.77
2023-05-23T00:08:42.329Z,41.09
2023-05-23T00:09:42.307Z,38.99
2023-05-23T00:10:42.297Z,42.06
2023-05-23T00:11:42.291Z,40.77
2023-05-23T00:12:42.299Z,42.70
2023-05-23T00:13:42.284Z,39.80
2023-05-23T00:14:42.258Z,41.25
2023-05-23T00:15:42.385Z,40.77
2023-05-23T00:16:42.280Z,41.41
2023-05-23T00:17:42.273Z,41.25
2023-05-23T00:18:42.215Z,41.25
2023-05-23T00:19:42.220Z,42.86
2023-05-23T00:20:42.195Z,44.96
2023-05-23T00:21:42.286Z,43.51
2023-05-23T00:22:42.230Z,43.18
2023-05-23T00:23:42.162Z,43.99
2023-05-23T00:24:42.150Z,40.44
2023-05-23T00:25:42.411Z,40.44
2023-05-23T00:26:42.124Z,40.77
2023-05-23T00:27:42.134Z,59.46
2023-05-23T00:28:42.109Z,42.06
2023-05-23T00:29:42.104Z,41.25
2023-05-23T00:30:42.273Z,41.73
2023-05-23T00:31:42.135Z,41.25
2023-05-23T00:32:42.141Z,41.09
2023-05-23T00:33:42.067Z,40.61
2023-05-23T00:34:42.044Z,61.07
2023-05-23T00:35:42.186Z,58.49
2023-05-23T00:36:42.033Z,39.32
2023-05-23T00:37:42.114Z,42.54
2023-05-23T00:38:42.001Z,56.40
2023-05-23T00:39:41.993Z,44.63
2023-05-23T00:40:42.000Z,42.06
2023-05-23T00:41:41.984Z,42.70
2023-05-23T00:42:41.956Z,40.28
2023-05-23T00:43:41.952Z,40.12
2023-05-23T00:44:41.939Z,39.32
2023-05-23T00:45:42.238Z,59.14
2023-05-23T00:46:41.937Z,42.54
2023-05-23T00:47:41.940Z,39.48
2023-05-23T00:48:41.894Z,41.89
2023-05-23T00:49:41.905Z,59.14
2023-05-23T00:50:41.891Z,38.99
2023-05-23T00:51:41.880Z,39.64
2023-05-23T00:52:41.856Z,41.73
2023-05-23T00:53:41.948Z,44.47
2023-05-23T00:54:41.836Z,37.87
2023-05-23T00:55:42.082Z,38.99
2023-05-23T00:56:41.819Z,39.96
2023-05-23T00:57:41.828Z,39.96
2023-05-23T00:58:41.795Z,56.07
2023-05-23T00:59:41.785Z,44.31
2023-05-23T01:00:41.792Z,55.59
2023-05-23T01:01:41.855Z,42.54
2023-05-23T01:02:41.813Z,41.73
2023-05-23T01:03:41.877Z,40.12
2023-05-23T01:04:41.735Z,40.44
2023-05-23T01:05:42.101Z,40.12
2023-05-23T01:06:41.706Z,40.12
2023-05-23T01:07:41.711Z,40.77
2023-05-23T01:08:41.685Z,43.83
2023-05-23T01:09:41.785Z,42.54
2023-05-23T01:10:41.663Z,40.12
2023-05-23T01:11:41.660Z,39.80
2023-05-23T01:12:41.636Z,40.12
2023-05-23T01:13:41.639Z,39.96
2023-05-23T01:14:41.649Z,39.80
2023-05-23T01:15:41.837Z,39.64
2023-05-23T01:16:41.654Z,59.14
2023-05-23T01:17:41.622Z,57.04
2023-05-23T01:18:41.596Z,39.96
2023-05-23T01:19:41.581Z,40.28
2023-05-23T01:20:41.560Z,39.32
2023-05-23T01:21:41.549Z,60.26
2023-05-23T01:22:41.546Z,46.25
2023-05-23T01:23:41.541Z,57.36
2023-05-23T01:24:41.510Z,39.96
2023-05-23T01:25:41.746Z,39.16
2023-05-23T01:26:41.515Z,41.57
2023-05-23T01:27:41.487Z,39.96
2023-05-23T01:28:41.480Z,39.80
2023-05-23T01:29:41.461Z,54.95
2023-05-23T01:30:41.453Z,64.29
2023-05-23T01:31:41.476Z,52.85
2023-05-23T01:32:41.475Z,60.91
2023-05-23T01:33:41.434Z,41.41
2023-05-23T01:34:41.420Z,40.93
2023-05-23T01:35:41.574Z,45.12
2023-05-23T01:36:41.392Z,45.44
2023-05-23T01:37:41.408Z,42.38
2023-05-23T01:38:41.383Z,42.54
2023-05-23T01:39:41.360Z,42.70
2023-05-23T01:40:41.353Z,40.93
2023-05-23T01:41:41.442Z,40.44
2023-05-23T01:42:41.367Z,41.89
2023-05-23T01:43:41.321Z,42.06
2023-05-23T01:44:41.319Z,56.07
2023-05-23T01:45:41.480Z,44.47
2023-05-23T01:46:41.306Z,56.72
2023-05-23T01:47:41.334Z,59.46
2023-05-23T01:48:41.274Z,59.14
2023-05-23T01:49:41.257Z,46.25
2023-05-23T01:50:41.250Z,44.63
2023-05-23T01:51:41.251Z,45.76
2023-05-23T01:52:41.240Z,46.25
2023-05-23T01:53:41.228Z,45.92
2023-05-23T01:54:41.215Z,46.08
2023-05-23T01:55:41.383Z,44.31
2023-05-23T01:56:41.209Z,44.79
2023-05-23T01:57:41.294Z,44.15
2023-05-23T01:58:41.178Z,42.86
2023-05-23T01:59:41.162Z,59.30
2023-05-23T02:00:41.152Z,43.83
2023-05-23T02:01:41.184Z,58.33
2023-05-23T02:02:41.224Z,43.99
2023-05-23T02:03:41.143Z,45.12
2023-05-23T02:04:41.112Z,45.92
2023-05-23T02:05:41.362Z,48.66
2023-05-23T02:06:41.103Z,57.04
2023-05-23T02:07:41.082Z,42.54
2023-05-23T02:08:41.078Z,45.76
2023-05-23T02:09:41.061Z,50.76
2023-05-23T02:10:41.058Z,47.86
2023-05-23T02:11:41.037Z,41.57
2023-05-23T02:12:41.032Z,42.38
2023-05-23T02:13:41.154Z,42.86
2023-05-23T02:14:41.012Z,43.18
2023-05-23T02:15:41.153Z,43.51
2023-05-23T02:16:40.992Z,42.54
2023-05-23T02:17:40.998Z,48.02
2023-05-23T02:18:40.964Z,45.28
2023-05-23T02:19:40.992Z,45.44
2023-05-23T02:20:40.964Z,47.37
2023-05-23T02:21:40.931Z,47.05
2023-05-23T02:22:40.918Z,48.34
2023-05-23T02:23:40.915Z,46.41
2023-05-23T02:24:40.909Z,48.18
2023-05-23T02:25:41.170Z,50.92
2023-05-23T02:26:40.878Z,55.11
2023-05-23T02:27:40.895Z,52.37
2023-05-23T02:28:40.857Z,50.60
2023-05-23T02:29:40.969Z,57.20
2023-05-23T02:30:40.841Z,59.78
2023-05-23T02:31:40.940Z,58.01
2023-05-23T02:32:40.851Z,58.49
2023-05-23T02:33:40.803Z,59.30
2023-05-23T02:34:40.852Z,58.33
2023-05-23T02:35:41.031Z,57.85
2023-05-23T02:36:40.775Z,58.97
2023-05-23T02:37:40.764Z,58.81
2023-05-23T02:38:40.775Z,58.17
2023-05-23T02:39:40.762Z,59.78
2023-05-23T02:40:40.733Z,55.59
2023-05-23T02:41:40.719Z,65.10
2023-05-23T02:42:40.718Z,66.39
2023-05-23T02:43:40.703Z,66.71
2023-05-23T02:44:40.707Z,67.51
2023-05-23T02:45:40.995Z,68.64
2023-05-23T02:46:40.762Z,66.71
2023-05-23T02:47:40.684Z,64.45
2023-05-23T02:48:40.694Z,60.10
2023-05-23T02:49:40.644Z,63.49
2023-05-23T02:50:40.639Z,63.81
2023-05-23T02:51:40.625Z,61.23
2023-05-23T02:52:40.620Z,58.81
2023-05-23T02:53:40.626Z,67.19
2023-05-23T02:54:40.621Z,66.23
2023-05-23T02:55:40.802Z,65.74
2023-05-23T02:56:40.566Z,61.55
2023-05-23T02:57:40.603Z,64.45
2023-05-23T02:58:40.590Z,63.16
2023-05-23T02:59:40.536Z,61.87
2023-05-23T03:00:40.531Z,62.36
2023-05-23T03:01:40.749Z,64.29
2023-05-23T03:02:40.581Z,61.23
2023-05-23T03:03:40.560Z,61.55
2023-05-23T03:04:40.547Z,63.65
2023-05-23T03:05:40.777Z,67.84
2023-05-23T03:06:40.534Z,68.00
2023-05-23T03:07:40.501Z,65.42
2023-05-23T03:08:40.498Z,59.78
2023-05-23T03:09:40.490Z,62.36
2023-05-23T03:10:40.486Z,59.94
2023-05-23T03:11:40.478Z,59.78
2023-05-23T03:12:40.456Z,61.39
2023-05-23T03:13:40.447Z,60.26
2023-05-23T03:14:40.477Z,61.39
2023-05-23T03:15:40.574Z,62.04
2023-05-23T03:16:40.587Z,63.33
2023-05-23T03:17:40.546Z,61.39
2023-05-23T03:18:40.397Z,62.84
2023-05-23T03:19:40.476Z,62.84
2023-05-23T03:20:40.385Z,64.61
2023-05-23T03:21:40.378Z,61.71
2023-05-23T03:22:40.357Z,59.78
2023-05-23T03:23:40.352Z,59.78
2023-05-23T03:24:40.356Z,60.26
2023-05-23T03:25:40.431Z,62.20
2023-05-23T03:26:40.317Z,61.39
2023-05-23T03:27:40.303Z,63.65
2023-05-23T03:28:40.293Z,66.71
2023-05-23T03:29:40.287Z,57.69
2023-05-23T03:30:40.292Z,61.23
2023-05-23T03:31:40.321Z,60.91
2023-05-23T03:32:40.310Z,57.20
2023-05-23T03:33:40.591Z,62.84
2023-05-23T03:34:40.249Z,63.65
2023-05-23T03:35:40.354Z,59.14
2023-05-23T03:36:40.221Z,61.87
2023-05-23T03:37:40.207Z,57.36
2023-05-23T03:38:40.191Z,60.75
2023-05-23T03:39:40.189Z,61.55
2023-05-23T03:40:40.186Z,60.26
2023-05-23T03:41:40.167Z,63.16
2023-05-23T03:42:40.150Z,62.04
2023-05-23T03:43:40.142Z,63.16
2023-05-23T03:44:40.140Z,61.55
2023-05-23T03:45:40.335Z,60.75
2023-05-23T03:46:40.372Z,50.43
2023-05-23T03:47:40.155Z,44.79
2023-05-23T03:48:40.100Z,40.93
2023-05-23T03:49:40.091Z,58.17
2023-05-23T03:50:40.065Z,58.17
2023-05-23T03:51:40.051Z,52.85
2023-05-23T03:52:40.048Z,47.05
2023-05-23T03:53:40.046Z,48.18
2023-05-23T03:54:40.028Z,51.56
2023-05-23T03:55:40.166Z,49.47
2023-05-23T03:56:39.998Z,49.47
2023-05-23T03:57:39.987Z,51.40
2023-05-23T03:58:39.987Z,60.91
2023-05-23T03:59:39.964Z,63.81
2023-05-23T04:00:39.960Z,61.55
2023-05-23T04:01:39.946Z,46.25
2023-05-23T04:02:40.175Z,58.17
2023-05-23T04:03:40.001Z,55.91
2023-05-23T04:04:40.009Z,62.20
2023-05-23T04:05:40.277Z,57.85
2023-05-23T04:06:39.898Z,62.04
2023-05-23T04:07:39.891Z,62.84
2023-05-23T04:08:39.874Z,64.13
2023-05-23T04:09:39.862Z,57.20
2023-05-23T04:10:39.854Z,54.14
2023-05-23T04:11:39.856Z,63.16
2023-05-23T04:12:39.845Z,58.33
2023-05-23T04:13:39.818Z,57.36
2023-05-23T04:14:39.808Z,56.88
2023-05-23T04:15:39.946Z,62.52
2023-05-23T04:16:39.847Z,58.01
2023-05-23T04:17:39.791Z,63.97
2023-05-23T04:18:39.773Z,63.33
2023-05-23T04:19:39.792Z,65.90
2023-05-23T04:20:39.745Z,60.26
2023-05-23T04:21:39.818Z,62.52
2023-05-23T04:22:39.699Z,63.33
2023-05-23T04:23:39.680Z,61.71
2023-05-23T04:24:39.661Z,66.55
2023-05-23T04:25:39.943Z,61.87
2023-05-23T04:26:39.678Z,61.87
2023-05-23T04:27:40.502Z,60.26
2023-05-23T04:28:39.608Z,59.78
2023-05-23T04:29:39.597Z,65.90
2023-05-23T04:30:39.584Z,64.61
2023-05-23T04:31:39.611Z,63.00
2023-05-23T04:32:39.588Z,62.36
2023-05-23T04:33:39.560Z,61.07
2023-05-23T04:34:39.545Z,60.59
2023-05-23T04:35:39.722Z,59.78
2023-05-23T04:36:39.528Z,70.09
2023-05-23T04:37:39.633Z,61.23
2023-05-23T04:38:39.515Z,59.94
2023-05-23T04:39:39.491Z,63.81
2023-05-23T04:40:39.495Z,61.07
2023-05-23T04:41:39.523Z,61.71
2023-05-23T04:42:39.456Z,60.75
2023-05-23T04:43:39.451Z,60.26
2023-05-23T04:44:39.444Z,63.00
2023-05-23T04:45:39.652Z,59.30
2023-05-23T04:46:39.463Z,61.55
2023-05-23T04:47:39.481Z,59.78
2023-05-23T04:48:39.410Z,60.75
2023-05-23T04:49:39.398Z,60.10
2023-05-23T04:50:39.391Z,60.59
2023-05-23T04:51:39.391Z,56.40
2023-05-23T04:52:39.359Z,60.42
2023-05-23T04:53:39.450Z,60.42
2023-05-23T04:54:39.346Z,58.65
2023-05-23T04:55:39.497Z,61.39
2023-05-23T04:56:39.310Z,61.55
2023-05-23T04:57:39.317Z,60.26
2023-05-23T04:58:39.294Z,59.78
2023-05-23T04:59:39.299Z,61.23
2023-05-23T05:00:39.713Z,60.26
2023-05-23T05:01:39.335Z,59.30
2023-05-23T05:02:39.317Z,59.94
2023-05-23T05:03:39.308Z,61.87
2023-05-23T05:04:39.239Z,61.87
2023-05-23T05:05:39.219Z,52.37
2023-05-23T05:06:39.209Z,62.04
2023-05-23T05:07:39.200Z,62.68
2023-05-23T05:08:39.186Z,67.03
2023-05-23T05:09:39.287Z,65.58
2023-05-23T05:10:39.292Z,59.30
2023-05-23T05:11:39.158Z,58.17
2023-05-23T05:12:39.147Z,59.30
2023-05-23T05:13:39.147Z,60.75
2023-05-23T05:14:39.132Z,61.55
2023-05-23T05:15:39.116Z,61.23
2023-05-23T05:16:39.277Z,60.75
2023-05-23T05:17:39.177Z,63.33
2023-05-23T05:18:39.149Z,58.65
2023-05-23T05:19:39.153Z,61.55
2023-05-23T05:20:39.375Z,61.23
2023-05-23T05:21:39.136Z,71.54
2023-05-23T05:22:39.038Z,63.97
2023-05-23T05:23:39.127Z,65.90
2023-05-23T05:24:39.028Z,65.10
2023-05-23T05:25:39.118Z,61.87
2023-05-23T05:26:38.997Z,59.46
2023-05-23T05:27:38.993Z,62.52
2023-05-23T05:28:40.480Z,62.68
2023-05-23T05:29:45.663Z,61.87
2023-05-23T05:30:39.288Z,61.23
2023-05-23T05:31:38.986Z,62.68
2023-05-23T05:32:39.010Z,61.71
2023-05-23T05:33:38.932Z,61.23
2023-05-23T05:34:38.913Z,75.09
2023-05-23T05:35:38.910Z,64.13
2023-05-23T05:36:38.892Z,62.36
2023-05-23T05:37:39.586Z,60.42
2023-05-23T05:38:38.876Z,56.72
2023-05-23T05:39:38.869Z,62.04
2023-05-23T05:40:39.016Z,61.07
2023-05-23T05:41:38.942Z,60.75
2023-05-23T05:42:38.849Z,57.52
2023-05-23T05:43:38.829Z,60.10
2023-05-23T05:44:38.838Z,63.33
2023-05-23T05:45:38.803Z,62.36
2023-05-23T05:46:38.819Z,61.23
2023-05-23T05:47:38.871Z,64.94
2023-05-23T05:48:39.232Z,63.65
2023-05-23T05:50:14.650Z,64.45
2023-05-23T05:50:45.743Z,59.78
2023-05-23T05:51:39.106Z,62.68
2023-05-23T05:52:38.754Z,58.17
2023-05-23T05:53:38.732Z,60.26
2023-05-23T05:54:38.717Z,56.24
2023-05-23T05:55:38.702Z,60.10
2023-05-23T05:56:38.719Z,61.71
2023-05-23T05:57:38.856Z,59.62
2023-05-23T05:58:38.713Z,59.46
2023-05-23T05:59:38.676Z,62.20
2023-05-23T06:00:38.737Z,62.36
2023-05-23T06:01:38.654Z,59.30
2023-05-23T06:02:38.711Z,53.17
2023-05-23T06:03:38.794Z,60.42
2023-05-23T06:04:38.670Z,60.91
2023-05-23T06:05:38.607Z,53.33
2023-05-23T06:06:38.598Z,58.17
2023-05-23T06:07:38.627Z,58.97
2023-05-23T06:08:59.563Z,60.59
2023-05-23T06:09:38.561Z,61.07
2023-05-23T06:10:38.858Z,62.68
2023-05-23T06:12:06.164Z,54.95
2023-05-23T06:15:07.670Z,46.08
2023-05-23T06:16:11.167Z,59.62
2023-05-23T06:23:22.364Z,61.07
2023-05-23T06:24:22.354Z,60.26
2023-05-23T06:25:22.344Z,62.52
2023-05-23T06:26:22.343Z,58.81
2023-05-23T06:27:22.334Z,58.97
2023-05-23T06:28:22.312Z,56.88
2023-05-23T06:29:22.498Z,58.65
2023-05-23T06:30:24.130Z,58.17
2023-05-23T06:31:22.349Z,60.75
2023-05-23T06:32:22.267Z,62.68
2023-05-23T06:33:22.247Z,61.87
2023-05-23T06:34:22.254Z,58.33
2023-05-23T06:35:22.250Z,63.00
2023-05-23T06:36:22.219Z,60.91
2023-05-23T06:37:22.205Z,60.42
2023-05-23T06:38:22.200Z,60.59
2023-05-23T06:39:22.191Z,60.10
2023-05-23T06:40:22.176Z,61.39
2023-05-23T06:41:22.167Z,62.20
2023-05-23T06:42:22.153Z,60.91
2023-05-23T06:43:22.155Z,59.46
2023-05-23T06:44:28.613Z,62.52
2023-05-23T06:45:22.145Z,55.59
2023-05-23T06:46:22.194Z,45.12
2023-05-23T06:47:22.118Z,59.94
2023-05-23T06:48:22.164Z,56.40
2023-05-23T06:49:22.088Z,59.14
2023-05-23T06:50:22.069Z,61.39
2023-05-23T06:51:22.096Z,41.09
2023-05-23T06:52:22.051Z,64.94
2023-05-23T06:53:22.045Z,57.85
2023-05-23T06:54:22.022Z,54.79
2023-05-23T06:55:22.022Z,59.46
2023-05-23T06:56:22.004Z,55.75
2023-05-23T06:57:22.023Z,57.85
2023-05-23T06:58:22.006Z,59.62
2023-05-23T06:59:21.986Z,63.97
2023-05-23T07:00:22.064Z,64.61
2023-05-23T07:01:22.013Z,65.26
2023-05-23T07:02:21.989Z,66.39
2023-05-23T07:03:22.008Z,61.87
2023-05-23T07:04:21.916Z,56.72
2023-05-23T07:05:21.929Z,59.30
2023-05-23T07:06:21.901Z,59.30
2023-05-23T07:09:47.989Z,61.23
2023-05-23T07:10:47.858Z,56.07
2023-05-23T07:11:47.876Z,60.42
2023-05-23T07:12:47.853Z,60.42
2023-05-23T07:13:47.838Z,61.39
2023-05-23T07:14:47.820Z,62.04
2023-05-23T07:15:47.903Z,60.26
2023-05-23T07:16:47.825Z,53.66
2023-05-23T07:17:47.823Z,57.52
2023-05-23T07:18:47.795Z,56.88
2023-05-23T07:19:47.760Z,61.23
2023-05-23T07:20:47.752Z,59.78
2023-05-23T07:21:47.759Z,62.84
2023-05-23T07:22:47.736Z,59.78
2023-05-23T07:23:47.719Z,58.81
2023-05-23T07:24:47.705Z,59.78
2023-05-23T07:26:00.997Z,58.49
2023-05-23T07:26:48.961Z,58.17
2023-05-23T07:27:47.673Z,59.14
2023-05-23T07:28:47.677Z,56.88
2023-05-23T07:29:47.652Z,59.14
2023-05-23T07:30:47.689Z,60.42
2023-05-23T07:31:47.741Z,58.49
2023-05-23T07:32:47.651Z,61.87
2023-05-23T07:33:47.614Z,60.42
2023-05-23T07:34:47.601Z,61.55
2023-05-23T07:35:47.597Z,58.65
2023-05-23T07:36:47.586Z,61.55
2023-05-23T07:37:50.192Z,60.26
2023-05-23T07:38:54.488Z,60.26
2023-05-23T07:39:47.594Z,62.04
2023-05-23T07:40:55.611Z,56.40
2023-05-23T07:41:48.545Z,60.75
2023-05-23T07:42:47.514Z,60.10
2023-05-23T07:43:47.503Z,60.10
2023-05-23T07:44:47.608Z,59.30
2023-05-23T07:45:47.558Z,64.13
2023-05-23T07:46:47.546Z,64.61
2023-05-23T07:47:47.574Z,66.71
2023-05-23T07:48:47.458Z,66.87
2023-05-23T07:49:47.492Z,65.26
2023-05-23T07:50:47.435Z,65.10
2023-05-23T07:51:47.431Z,66.39
2023-05-23T07:52:47.412Z,67.19
2023-05-23T07:53:47.401Z,66.23
2023-05-23T07:54:47.417Z,66.06
2023-05-23T07:55:47.390Z,63.81
2023-05-23T07:56:47.379Z,66.23
2023-05-23T07:57:47.370Z,55.43
2023-05-23T07:58:47.361Z,61.07
2023-05-23T07:59:47.355Z,60.75
2023-05-23T08:00:47.338Z,59.62
2023-05-23T08:01:47.368Z,60.26
2023-05-23T08:02:47.348Z,60.75
2023-05-23T08:03:47.377Z,59.94
2023-05-23T08:04:47.422Z,57.36
2023-05-23T08:05:47.293Z,64.94
2023-05-23T08:07:00.642Z,64.29
2023-05-23T08:07:48.258Z,60.26
2023-05-23T08:08:47.270Z,58.81
2023-05-23T08:09:47.240Z,60.59
2023-05-23T08:10:47.256Z,61.55
2023-05-23T08:11:47.213Z,61.87
2023-05-23T08:12:47.222Z,56.24
2023-05-23T08:13:47.201Z,57.20
2023-05-23T08:14:51.361Z,58.01
2023-05-23T08:15:48.211Z,58.81
2023-05-23T08:16:47.318Z,56.24
2023-05-23T08:17:47.240Z,59.78
2023-05-23T08:21:19.752Z,58.65
2023-05-23T08:22:14.024Z,58.81
2023-05-23T08:23:13.106Z,60.75
2023-05-23T08:24:14.937Z,60.42
2023-05-23T08:25:13.075Z,60.59
2023-05-23T08:26:13.062Z,57.85
2023-05-23T08:27:13.062Z,60.75
2023-05-23T08:28:13.040Z,60.10
2023-05-23T08:29:13.034Z,62.36
2023-05-23T08:30:13.026Z,62.68
2023-05-23T08:31:13.007Z,60.75
2023-05-23T08:32:13.131Z,61.87
2023-05-23T08:33:12.994Z,60.59
2023-05-23T08:34:12.973Z,58.65
2023-05-23T08:35:12.960Z,59.94
2023-05-23T08:36:12.968Z,59.46
2023-05-23T08:37:12.948Z,45.92
2023-05-23T08:38:12.931Z,62.20
2023-05-23T08:39:14.246Z,54.14
2023-05-23T08:40:12.913Z,57.52
2023-05-23T08:41:12.902Z,58.49
2023-05-23T08:42:12.967Z,59.30
2023-05-23T08:43:12.871Z,63.81
2023-05-23T08:44:12.863Z,60.26
2023-05-23T08:45:12.848Z,59.78
2023-05-23T08:46:12.887Z,59.62
2023-05-23T08:47:12.838Z,52.37
2023-05-23T08:48:12.817Z,59.14
2023-05-23T08:49:12.807Z,61.39
2023-05-23T08:50:12.799Z,63.33
2023-05-23T08:51:12.790Z,63.65
2023-05-23T08:52:12.793Z,58.33
2023-05-23T08:53:12.761Z,62.36
2023-05-23T08:54:16.705Z,72.35
2023-05-23T08:55:12.953Z,63.97
2023-05-23T08:56:12.938Z,56.56
2023-05-23T08:57:12.722Z,56.24
2023-05-23T08:58:12.715Z,59.94
2023-05-23T08:59:12.702Z,59.46
2023-05-23T09:00:12.710Z,61.23
2023-05-23T09:01:12.710Z,61.87
2023-05-23T09:02:12.686Z,60.91
2023-05-23T09:03:12.663Z,63.97
2023-05-23T09:04:12.665Z,57.20
2023-05-23T09:05:12.712Z,54.95
2023-05-23T09:06:12.636Z,64.45
2023-05-23T09:07:12.677Z,60.59
2023-05-23T09:08:13.237Z,54.79
2023-05-23T09:09:12.619Z,56.24
2023-05-23T09:10:12.603Z,63.00
2023-05-23T09:11:12.578Z,52.69
2023-05-23T09:12:12.571Z,59.46
2023-05-23T09:13:12.560Z,55.43
2023-05-23T09:14:12.563Z,61.39
2023-05-23T09:15:12.677Z,59.14
2023-05-23T09:16:14.331Z,61.23
2023-05-23T09:17:12.534Z,62.20
2023-05-23T09:18:12.514Z,62.36
2023-05-23T09:19:12.547Z,60.91
2023-05-23T09:20:12.496Z,61.23
2023-05-23T09:21:12.480Z,60.91
2023-05-23T09:22:12.467Z,62.84
2023-05-23T09:23:12.463Z,59.30
2023-05-23T09:24:12.464Z,59.94
2023-05-23T09:25:12.460Z,62.52
2023-05-23T09:26:12.421Z,62.52
2023-05-23T09:27:12.406Z,62.52
2023-05-23T09:28:12.425Z,48.98
2023-05-23T09:29:12.392Z,62.68
2023-05-23T09:30:12.414Z,59.30
2023-05-23T09:31:12.427Z,64.94
2023-05-23T09:32:12.406Z,61.23
2023-05-23T09:33:12.432Z,59.78
2023-05-23T09:34:12.339Z,45.92
2023-05-23T09:35:12.364Z,66.39
2023-05-23T09:36:12.312Z,66.23
2023-05-23T09:37:12.308Z,64.61
2023-05-23T09:38:12.311Z,65.10
2023-05-23T09:39:12.309Z,63.97
2023-05-23T09:40:12.367Z,58.33
2023-05-23T09:41:12.313Z,61.39
2023-05-23T09:42:12.266Z,58.81
2023-05-23T09:43:12.277Z,60.42
2023-05-23T09:44:12.251Z,59.30
2023-05-23T09:45:12.256Z,58.97
2023-05-23T09:46:12.238Z,57.20
2023-05-23T09:47:12.324Z,71.70
2023-05-23T09:48:12.240Z,65.74
2023-05-23T09:49:12.175Z,58.81
2023-05-23T09:50:12.224Z,59.78
2023-05-23T09:51:12.168Z,61.39
2023-05-23T09:52:12.158Z,62.68
2023-05-23T09:53:12.149Z,60.42
2023-05-23T09:54:12.139Z,59.14
2023-05-23T09:55:12.129Z,60.10
2023-05-23T09:56:12.111Z,58.65
2023-05-23T09:57:12.141Z,61.87
2023-05-23T09:58:12.108Z,46.41
2023-05-23T09:59:12.076Z,59.78
2023-05-23T10:00:12.105Z,61.87
2023-05-23T10:01:12.088Z,59.30
2023-05-23T10:02:12.099Z,49.95
2023-05-23T10:03:12.147Z,59.94
2023-05-23T10:04:12.064Z,60.91
2023-05-23T10:05:12.063Z,59.30
2023-05-23T10:06:12.016Z,60.75
2023-05-23T10:07:12.013Z,60.91
2023-05-23T10:08:11.978Z,56.40
2023-05-23T10:09:11.973Z,61.23
2023-05-23T10:10:11.978Z,60.26
2023-05-23T10:11:11.973Z,67.51
2023-05-23T10:12:11.942Z,63.97
2023-05-23T10:13:11.929Z,63.81
2023-05-23T10:14:11.913Z,60.59
2023-05-23T10:15:11.922Z,60.26
2023-05-23T10:16:11.899Z,58.17
2023-05-23T10:17:11.966Z,58.33
2023-05-23T10:18:11.872Z,53.33
2023-05-23T10:19:11.941Z,58.97
2023-05-23T10:20:11.864Z,55.43
2023-05-23T10:21:11.850Z,58.17
2023-05-23T10:22:11.838Z,60.42
2023-05-23T10:23:11.812Z,68.48
2023-05-23T10:24:11.810Z,61.39
2023-05-23T10:25:11.811Z,60.91
2023-05-23T10:26:11.783Z,60.59
2023-05-23T10:27:11.780Z,58.49
2023-05-23T10:28:11.774Z,58.01
2023-05-23T10:29:11.753Z,58.33
2023-05-23T10:30:11.756Z,60.59
2023-05-23T10:31:11.793Z,59.94
2023-05-23T10:32:11.723Z,60.26
2023-05-23T10:33:11.710Z,60.10
2023-05-23T10:34:11.713Z,60.75
2023-05-23T10:35:11.741Z,59.78
2023-05-23T10:36:11.707Z,58.33
2023-05-23T10:37:11.694Z,60.91
2023-05-23T10:38:11.834Z,54.95
2023-05-23T10:39:11.646Z,61.07
2023-05-23T10:40:11.633Z,61.23
2023-05-23T10:41:11.632Z,59.62
2023-05-23T10:42:11.603Z,59.78
2023-05-23T10:43:11.619Z,60.91
2023-05-23T10:44:11.591Z,61.39
2023-05-23T10:45:11.575Z,60.26
2023-05-23T10:46:11.647Z,62.68
2023-05-23T10:47:11.591Z,56.88
2023-05-23T10:48:11.767Z,61.71
2023-05-23T10:49:11.531Z,53.50
2023-05-23T10:50:11.588Z,61.55
2023-05-23T10:51:11.506Z,61.55
2023-05-23T10:52:11.502Z,60.42
2023-05-23T10:53:11.497Z,60.91
2023-05-23T10:54:11.503Z,58.81
2023-05-23T10:55:11.464Z,61.87
2023-05-23T10:56:11.463Z,65.10
2023-05-23T10:57:11.452Z,63.00
2023-05-23T10:58:11.464Z,62.84
2023-05-23T10:59:11.419Z,65.90
2023-05-23T11:00:11.453Z,62.20
2023-05-23T11:01:11.409Z,62.20
2023-05-23T11:02:11.528Z,61.55
2023-05-23T11:03:11.561Z,61.39
2023-05-23T11:04:11.411Z,60.75
2023-05-23T11:05:11.357Z,64.45
2023-05-23T11:06:11.354Z,63.16
2023-05-23T11:07:11.344Z,59.78
2023-05-23T11:08:11.319Z,62.20
2023-05-23T11:09:11.314Z,60.75
2023-05-23T11:10:11.354Z,60.26
2023-05-23T11:11:11.302Z,60.59
2023-05-23T11:12:11.349Z,61.87
2023-05-23T11:13:11.297Z,60.59
2023-05-23T11:14:11.262Z,63.33
2023-05-23T11:15:11.252Z,61.87
2023-05-23T11:16:11.253Z,62.84
2023-05-23T11:17:11.229Z,67.35
2023-05-23T11:18:11.250Z,65.26
2023-05-23T11:19:11.339Z,65.26
2023-05-23T11:20:13.874Z,63.81
2023-05-23T11:22:12.282Z,65.90
2023-05-23T11:23:11.166Z,66.23
2023-05-23T11:24:11.385Z,65.10
2023-05-23T11:25:11.172Z,65.90
2023-05-23T11:26:11.152Z,63.97
2023-05-23T11:27:11.134Z,61.87
2023-05-23T11:28:11.134Z,59.30
2023-05-23T11:29:11.160Z,62.36
2023-05-23T11:30:11.138Z,67.68
2023-05-23T11:31:11.107Z,60.59
2023-05-23T11:32:16.027Z,60.10
2023-05-23T11:33:12.136Z,54.79
2023-05-23T11:34:11.065Z,62.36
2023-05-23T11:35:11.074Z,60.91
2023-05-23T11:36:11.065Z,62.04
2023-05-23T11:37:11.041Z,59.78
2023-05-23T11:38:11.769Z,57.69
2023-05-23T11:39:11.292Z,61.55
2023-05-23T11:40:11.128Z,61.87
2023-05-23T11:41:11.074Z,60.59
2023-05-23T11:42:10.980Z,58.17
2023-05-23T11:43:11.025Z,60.91
2023-05-23T11:44:11.026Z,61.87
2023-05-23T12:06:42.690Z,63.49
2023-05-23T12:07:42.222Z,60.91
2023-05-23T12:08:42.218Z,59.14
2023-05-23T12:23:36.753Z,56.88
2023-05-23T12:24:36.711Z,60.59
2023-05-23T12:25:36.687Z,61.23
2023-05-23T12:26:36.687Z,63.00
2023-05-23T12:27:36.684Z,61.07
2023-05-23T12:28:36.705Z,66.71
2023-05-23T12:29:36.647Z,66.23
2023-05-23T12:30:36.672Z,67.35
2023-05-23T12:31:36.699Z,64.13
2023-05-23T12:32:36.780Z,61.07
2023-05-23T12:33:40.295Z,57.20
2023-05-23T12:34:36.603Z,46.89
2023-05-23T12:35:36.591Z,65.42
2023-05-23T12:36:44.854Z,65.42
2023-05-23T12:37:37.572Z,64.78
2023-05-23T12:38:36.742Z,64.94
2023-05-23T12:39:43.341Z,61.23
2023-05-23T12:40:36.551Z,59.46
2023-05-23T12:41:36.534Z,58.33
2023-05-23T12:42:36.517Z,60.10
2023-05-23T12:43:36.505Z,60.26
2023-05-23T12:44:36.494Z,63.49
2023-05-23T12:45:36.560Z,61.55
2023-05-23T12:46:36.513Z,61.39
2023-05-23T12:47:36.498Z,61.07
2023-05-23T12:48:36.472Z,63.16
2023-05-23T12:49:37.317Z,60.42
2023-05-23T12:50:36.444Z,59.62
2023-05-23T12:51:36.427Z,63.33
2023-05-23T12:52:36.424Z,60.75
2023-05-23T12:53:36.406Z,62.68
2023-05-23T12:54:36.452Z,64.13
2023-05-23T12:55:36.403Z,60.91
2023-05-23T12:56:36.380Z,60.91
2023-05-23T12:57:36.477Z,63.33
2023-05-23T12:58:36.366Z,61.55
2023-05-23T12:59:36.428Z,61.71
2023-05-23T13:04:31.071Z,58.17
2023-05-23T13:05:28.313Z,60.91
2023-05-23T13:06:28.359Z,63.81
2023-05-23T13:07:28.372Z,59.78
2023-05-23T13:08:28.333Z,62.52
2023-05-23T13:09:28.264Z,63.16
2023-05-23T13:10:30.896Z,62.20
2023-05-23T13:11:28.240Z,63.33
2023-05-23T13:12:28.229Z,62.04
2023-05-23T13:13:28.330Z,59.14
2023-05-23T13:14:28.259Z,62.84
2023-05-23T13:15:28.199Z,59.78
2023-05-23T13:16:28.223Z,61.87
2023-05-23T13:17:28.220Z,64.61
2023-05-23T13:18:28.177Z,60.59
2023-05-23T13:19:28.225Z,58.33
2023-05-23T13:20:28.149Z,61.39
2023-05-23T13:21:28.163Z,62.20
2023-05-23T13:22:28.123Z,57.52
2023-05-23T13:23:28.185Z,56.72
2023-05-23T13:24:28.125Z,59.30
2023-05-23T13:25:28.083Z,60.59
2023-05-23T13:26:28.089Z,62.68
2023-05-23T13:27:28.123Z,59.30
2023-05-23T13:28:28.078Z,60.91
2023-05-23T13:29:28.047Z,62.36
2023-05-23T13:30:28.040Z,59.46
2023-05-23T13:31:28.055Z,61.23
2023-05-23T13:32:28.055Z,70.90
2023-05-23T13:33:28.042Z,61.23
2023-05-23T13:34:28.009Z,60.10
2023-05-23T13:35:27.979Z,51.88
2023-05-23T13:36:27.978Z,64.78
2023-05-23T13:37:28.000Z,59.94
2023-05-23T13:38:30.528Z,45.44
2023-05-23T13:39:27.939Z,63.16
2023-05-23T13:40:27.976Z,62.36
2023-05-23T13:41:27.924Z,60.10
2023-05-23T13:42:27.916Z,60.91
2023-05-23T13:43:27.896Z,59.78
2023-05-23T13:44:27.881Z,61.55
2023-05-23T13:45:27.867Z,66.06
2023-05-23T13:46:27.902Z,61.87